South Hanover, Pennsylvania
Current Conditions -  °F | °C
As of 11:56 PM on Saturday 20 Dec 2014 (Local Time) from KMDT Reporting Station
Scattered Clouds Scattered Clouds  
Wind Chill: 23°   Ceiling: Unl
Heat Index: 28°   Visibility: 10mi
Dew Point: 21°   Wind: 5mph
Humidity: 75%   Direction: 320°NW
Pressure: 30.29"   Gusts: NA
Location:  40.2988°N, 76.709°W
Report Text: KMDT 210456Z 32004KT 10SM FEW032 SCT110 M02/M06 A3029 RMK AO2 SLP260 T10221061 400111039 $
Loading
Personal Weather Stations






























Interactive Weather Map New forecast layout! Learn more

10-Day Weather Forecast

Advertisements
Track Severe Weather on mobile